sensor_id;sensor_type;location;lat;lon;timestamp;pressure;altitude;pressure_sealevel;temperature;humidity
46724;BME280;32463;48.298;11.620;2022-09-19T00:01:28;96051.16;;;7.67;100.00
46724;BME280;32463;48.298;11.620;2022-09-19T00:04:03;96045.19;;;7.66;100.00
46724;BME280;32463;48.298;11.620;2022-09-19T00:06:33;96044.09;;;7.69;100.00
46724;BME280;32463;48.298;11.620;2022-09-19T00:09:01;96042.75;;;7.65;100.00
46724;BME280;32463;48.298;11.620;2022-09-19T00:11:28;96051.16;;;7.67;100.00
46724;BME280;32463;48.298;11.620;2022-09-19T00:13:57;96050.88;;;7.70;100.00
46724;BME280;32463;48.298;11.620;2022-09-19T00:16:33;96042.03;;;7.72;100.00
46724;BME280;32463;48.298;11.620;2022-09-19T00:19:02;96038.13;;;7.68;100.00
46724;BME280;32463;48.298;11.620;2022-09-19T00:21:41;96036.19;;;7.70;100.00
46724;BME280;32463;48.298;11.620;2022-09-19T00:24:15;96027.72;;;7.78;100.00
46724;BME280;32463;48.298;11.620;2022-09-19T00:26:59;96022.56;;;7.78;100.00
46724;BME280;32463;48.298;11.620;2022-09-19T00:29:27;96029.34;;;7.79;100.00
46724;BME280;32463;48.298;11.620;2022-09-19T00:31:53;96037.38;;;7.76;100.00
46724;BME280;32463;48.298;11.620;2022-09-19T00:34:20;96039.00;;;7.77;100.00
46724;BME280;32463;48.298;11.620;2022-09-19T00:36:47;96029.34;;;7.79;100.00
46724;BME280;32463;48.298;11.620;2022-09-19T00:39:15;96031.03;;;7.70;100.00
46724;BME280;32463;48.298;11.620;2022-09-19T00:41:43;96035.81;;;7.65;100.00
46724;BME280;32463;48.298;11.620;2022-09-19T00:47:00;96039.84;;;7.60;100.00
46724;BME280;32463;48.298;11.620;2022-09-19T00:49:33;96072.91;;;7.64;100.00
46724;BME280;32463;48.298;11.620;2022-09-19T00:52:08;96096.63;;;7.32;100.00
46724;BME280;32463;48.298;11.620;2022-09-19T00:54:39;96086.59;;;7.02;100.00
46724;BME280;32463;48.298;11.620;2022-09-19T00:57:08;96108.41;;;6.70;100.00
46724;BME280;32463;48.298;11.620;2022-09-19T00:59:38;96111.16;;;6.59;100.00
46724;BME280;32463;48.298;11.620;2022-09-19T01:02:07;96110.63;;;6.46;100.00
46724;BME280;32463;48.298;11.620;2022-09-19T01:04:34;96113.09;;;6.38;100.00
46724;BME280;32463;48.298;11.620;2022-09-19T01:10:05;96126.09;;;6.27;100.00
46724;BME280;32463;48.298;11.620;2022-09-19T01:18:05;96122.84;;;6.25;100.00
46724;BME280;32463;48.298;11.620;2022-09-19T01:23:44;96117.56;;;6.26;100.00
46724;BME280;32463;48.298;11.620;2022-09-19T01:31:20;96127.47;;;6.31;100.00
46724;BME280;32463;48.298;11.620;2022-09-19T01:33:52;96124.22;;;6.29;100.00
46724;BME280;32463;48.298;11.620;2022-09-19T01:36:31;96122.44;;;6.29;100.00
46724;BME280;32463;48.298;11.620;2022-09-19T01:39:01;96125.44;;;6.25;100.00
46724;BME280;32463;48.298;11.620;2022-09-19T01:41:29;96128.41;;;6.20;100.00
46724;BME280;32463;48.298;11.620;2022-09-19T01:44:00;96136.41;;;6.27;100.00
46724;BME280;32463;48.298;11.620;2022-09-19T01:49:31;96133.69;;;6.19;100.00
46724;BME280;32463;48.298;11.620;2022-09-19T01:55:25;96138.28;;;6.25;100.00
46724;BME280;32463;48.298;11.620;2022-09-19T01:58:13;96144.53;;;6.22;100.00
46724;BME280;32463;48.298;11.620;2022-09-19T02:00:52;96146.41;;;6.20;100.00
46724;BME280;32463;48.298;11.620;2022-09-19T02:06:09;96142.91;;;6.21;100.00
46724;BME280;32463;48.298;11.620;2022-09-19T02:08:57;96149.41;;;6.16;100.00
46724;BME280;32463;48.298;11.620;2022-09-19T02:11:26;96149.53;;;6.14;100.00
46724;BME280;32463;48.298;11.620;2022-09-19T02:13:58;96153.75;;;6.05;100.00
46724;BME280;32463;48.298;11.620;2022-09-19T02:16:41;96151.84;;;6.07;100.00
46724;BME280;32463;48.298;11.620;2022-09-19T02:19:15;96156.44;;;5.94;100.00
46724;BME280;32463;48.298;11.620;2022-09-19T02:21:47;96153.97;;;5.83;100.00
46724;BME280;32463;48.298;11.620;2022-09-19T02:24:21;96162.38;;;5.75;100.00
46724;BME280;32463;48.298;11.620;2022-09-19T02:26:54;96162.91;;;5.79;100.00
46724;BME280;32463;48.298;11.620;2022-09-19T02:29:27;96174.66;;;5.72;100.00
46724;BME280;32463;48.298;11.620;2022-09-19T02:31:59;96168.69;;;5.62;100.00
46724;BME280;32463;48.298;11.620;2022-09-19T02:34:26;96168.25;;;5.57;100.00
46724;BME280;32463;48.298;11.620;2022-09-19T02:37:02;96169.88;;;5.58;100.00
46724;BME280;32463;48.298;11.620;2022-09-19T02:39:40;96167.44;;;5.56;100.00
46724;BME280;32463;48.298;11.620;2022-09-19T02:42:22;96173.91;;;5.51;100.00
46724;BME280;32463;48.298;11.620;2022-09-19T02:50:54;96176.88;;;5.36;100.00
46724;BME280;32463;48.298;11.620;2022-09-19T02:53:27;96174.56;;;5.33;100.00
46724;BME280;32463;48.298;11.620;2022-09-19T02:55:59;96178.94;;;5.43;100.00
46724;BME280;32463;48.298;11.620;2022-09-19T02:58:32;96182.19;;;5.45;100.00
46724;BME280;32463;48.298;11.620;2022-09-19T03:01:09;96174.72;;;5.41;100.00
46724;BME280;32463;48.298;11.620;2022-09-19T03:03:41;96183.25;;;5.42;100.00
46724;BME280;32463;48.298;11.620;2022-09-19T03:06:31;96185.00;;;5.41;100.00
46724;BME280;32463;48.298;11.620;2022-09-19T03:09:02;96185.00;;;5.41;100.00
46724;BME280;32463;48.298;11.620;2022-09-19T03:11:31;96178.53;;;5.47;100.00
46724;BME280;32463;48.298;11.620;2022-09-19T03:14:00;96176.63;;;5.39;100.00
46724;BME280;32463;48.298;11.620;2022-09-19T03:16:33;96185.13;;;5.40;100.00
46724;BME280;32463;48.298;11.620;2022-09-19T03:19:03;96188.78;;;5.37;100.00
46724;BME280;32463;48.298;11.620;2022-09-19T03:21:32;96190.41;;;5.38;100.00
46724;BME280;32463;48.298;11.620;2022-09-19T03:24:00;96200.69;;;5.38;100.00
46724;BME280;32463;48.298;11.620;2022-09-19T03:26:30;96210.16;;;5.38;100.00
46724;BME280;32463;48.298;11.620;2022-09-19T03:29:00;96216.63;;;5.32;100.00
46724;BME280;32463;48.298;11.620;2022-09-19T03:31:28;96211.19;;;5.26;100.00
46724;BME280;32463;48.298;11.620;2022-09-19T03:33:55;96221.22;;;5.29;100.00
46724;BME280;32463;48.298;11.620;2022-09-19T03:36:23;96217.38;;;5.23;100.00
46724;BME280;32463;48.298;11.620;2022-09-19T03:38:50;96223.41;;;5.33;100.00
46724;BME280;32463;48.298;11.620;2022-09-19T03:41:18;96217.75;;;5.39;100.00
46724;BME280;32463;48.298;11.620;2022-09-19T03:43:46;96223.75;;;5.50;100.00
46724;BME280;32463;48.298;11.620;2022-09-19T03:46:17;96223.19;;;5.56;100.00
46724;BME280;32463;48.298;11.620;2022-09-19T03:48:45;96213.84;;;5.55;100.00
46724;BME280;32463;48.298;11.620;2022-09-19T03:51:16;96218.06;;;5.56;100.00
46724;BME280;32463;48.298;11.620;2022-09-19T03:53:43;96230.47;;;5.51;100.00
46724;BME280;32463;48.298;11.620;2022-09-19T03:56:11;96229.69;;;5.50;100.00
46724;BME280;32463;48.298;11.620;2022-09-19T03:58:38;96232.13;;;5.52;100.00
46724;BME280;32463;48.298;11.620;2022-09-19T04:01:05;96233.06;;;5.51;100.00
46724;BME280;32463;48.298;11.620;2022-09-19T04:03:36;96230.22;;;5.54;100.00
46724;BME280;32463;48.298;11.620;2022-09-19T04:06:03;96239.56;;;5.55;100.00
46724;BME280;32463;48.298;11.620;2022-09-19T04:08:30;96239.16;;;5.50;100.00
46724;BME280;32463;48.298;11.620;2022-09-19T04:10:57;96241.88;;;5.58;100.00
46724;BME280;32463;48.298;11.620;2022-09-19T04:13:24;96241.63;;;5.61;100.00
46724;BME280;32463;48.298;11.620;2022-09-19T04:15:52;96248.66;;;5.59;100.00
46724;BME280;32463;48.298;11.620;2022-09-19T04:18:20;96254.75;;;5.58;100.00
46724;BME280;32463;48.298;11.620;2022-09-19T04:20:47;96250.53;;;5.57;100.00
46724;BME280;32463;48.298;11.620;2022-09-19T04:23:16;96250.00;;;5.53;100.00
46724;BME280;32463;48.298;11.620;2022-09-19T04:25:43;96260.00;;;5.47;100.00
46724;BME280;32463;48.298;11.620;2022-09-19T04:28:12;96256.75;;;5.45;100.00
46724;BME280;32463;48.298;11.620;2022-09-19T04:30:39;96265.38;;;5.44;100.00
46724;BME280;32463;48.298;11.620;2022-09-19T04:33:08;96266.47;;;5.51;100.00
46724;BME280;32463;48.298;11.620;2022-09-19T04:35:36;96262.72;;;5.55;100.00
46724;BME280;32463;48.298;11.620;2022-09-19T04:40:30;96271.03;;;5.68;100.00
46724;BME280;32463;48.298;11.620;2022-09-19T04:42:56;96266.19;;;5.74;100.00
46724;BME280;32463;48.298;11.620;2022-09-19T04:45:23;96274.72;;;5.75;100.00
46724;BME280;32463;48.298;11.620;2022-09-19T04:47:49;96276.09;;;5.79;100.00
46724;BME280;32463;48.298;11.620;2022-09-19T04:50:19;96278.91;;;5.76;100.00
46724;BME280;32463;48.298;11.620;2022-09-19T04:52:46;96283.13;;;5.77;100.00
46724;BME280;32463;48.298;11.620;2022-09-19T04:55:12;96285.28;;;5.82;100.00
46724;BME280;32463;48.298;11.620;2022-09-19T04:57:39;96292.88;;;5.83;100.00
46724;BME280;32463;48.298;11.620;2022-09-19T05:00:06;96289.34;;;5.84;100.00
46724;BME280;32463;48.298;11.620;2022-09-19T05:02:32;96290.72;;;5.88;100.00
46724;BME280;32463;48.298;11.620;2022-09-19T05:05:00;96292.59;;;5.86;100.00
46724;BME280;32463;48.298;11.620;2022-09-19T05:07:26;96303.72;;;5.87;100.00
46724;BME280;32463;48.298;11.620;2022-09-19T05:09:59;96312.84;;;5.91;100.00
46724;BME280;32463;48.298;11.620;2022-09-19T05:12:26;96312.84;;;5.91;100.00
46724;BME280;32463;48.298;11.620;2022-09-19T05:14:53;96317.59;;;5.95;100.00
46724;BME280;32463;48.298;11.620;2022-09-19T05:17:20;96319.34;;;5.95;100.00
46724;BME280;32463;48.298;11.620;2022-09-19T05:19:46;96327.38;;;6.01;100.00
46724;BME280;32463;48.298;11.620;2022-09-19T05:22:13;96322.75;;;5.95;100.00
46724;BME280;32463;48.298;11.620;2022-09-19T05:24:40;96329.81;;;6.03;100.00
46724;BME280;32463;48.298;11.620;2022-09-19T05:27:06;96333.75;;;6.07;100.00
46724;BME280;32463;48.298;11.620;2022-09-19T05:29:33;96343.50;;;6.03;100.00
46724;BME280;32463;48.298;11.620;2022-09-19T05:32:02;96332.00;;;6.07;100.00
46724;BME280;32463;48.298;11.620;2022-09-19T05:34:29;96340.13;;;6.13;100.00
46724;BME280;32463;48.298;11.620;2022-09-19T05:36:55;96343.81;;;6.20;100.00
46724;BME280;32463;48.298;11.620;2022-09-19T05:39:23;96347.22;;;6.30;100.00
46724;BME280;32463;48.298;11.620;2022-09-19T05:41:49;96348.84;;;6.31;100.00
46724;BME280;32463;48.298;11.620;2022-09-19T05:44:15;96362.16;;;6.36;100.00
46724;BME280;32463;48.298;11.620;2022-09-19T05:46:42;96368.94;;;6.37;100.00
46724;BME280;32463;48.298;11.620;2022-09-19T05:49:09;96370.56;;;6.38;100.00
46724;BME280;32463;48.298;11.620;2022-09-19T05:51:35;96370.00;;;6.44;100.00
46724;BME280;32463;48.298;11.620;2022-09-19T05:54:02;96374.63;;;6.40;100.00
46724;BME280;32463;48.298;11.620;2022-09-19T05:56:27;96372.19;;;6.39;100.00
46724;BME280;32463;48.298;11.620;2022-09-19T05:58:55;96369.63;;;6.39;100.00
46724;BME280;32463;48.298;11.620;2022-09-19T06:01:22;96373.97;;;6.48;100.00
46724;BME280;32463;48.298;11.620;2022-09-19T06:03:48;96365.97;;;6.51;100.00
46724;BME280;32463;48.298;11.620;2022-09-19T06:06:17;96383.06;;;6.52;100.00
46724;BME280;32463;48.298;11.620;2022-09-19T06:08:45;96379.28;;;6.56;100.00
46724;BME280;32463;48.298;11.620;2022-09-19T06:11:12;96375.63;;;6.59;100.00
46724;BME280;32463;48.298;11.620;2022-09-19T06:13:39;96371.69;;;6.64;100.00
46724;BME280;32463;48.298;11.620;2022-09-19T06:16:23;96370.06;;;6.63;100.00
46724;BME280;32463;48.298;11.620;2022-09-19T06:18:49;96380.91;;;6.76;100.00
46724;BME280;32463;48.298;11.620;2022-09-19T06:21:16;96382.53;;;6.78;100.00
46724;BME280;32463;48.298;11.620;2022-09-19T06:23:43;96385.28;;;6.86;100.00
46724;BME280;32463;48.298;11.620;2022-09-19T06:26:09;96386.91;;;6.87;100.00
46724;BME280;32463;48.298;11.620;2022-09-19T06:28:36;96392.47;;;6.92;100.00
46724;BME280;32463;48.298;11.620;2022-09-19T06:31:04;96382.16;;;6.92;100.00
46724;BME280;32463;48.298;11.620;2022-09-19T06:33:31;96398.84;;;6.97;100.00
46724;BME280;32463;48.298;11.620;2022-09-19T06:35:58;96407.25;;;7.09;100.00
46724;BME280;32463;48.298;11.620;2022-09-19T06:38:28;96416.78;;;7.18;100.00
46724;BME280;32463;48.298;11.620;2022-09-19T06:40:56;96416.63;;;7.10;100.00
46724;BME280;32463;48.298;11.620;2022-09-19T06:43:22;96416.63;;;7.10;100.00
46724;BME280;32463;48.298;11.620;2022-09-19T06:45:51;96434.44;;;7.32;100.00
46724;BME280;32463;48.298;11.620;2022-09-19T06:48:18;96421.66;;;7.12;100.00
46724;BME280;32463;48.298;11.620;2022-09-19T06:50:45;96430.34;;;7.20;100.00
46724;BME280;32463;48.298;11.620;2022-09-19T06:53:13;96432.50;;;7.15;100.00
46724;BME280;32463;48.298;11.620;2022-09-19T06:55:40;96433.88;;;7.19;100.00
46724;BME280;32463;48.298;11.620;2022-09-19T06:58:06;96436.03;;;7.24;100.00
46724;BME280;32463;48.298;11.620;2022-09-19T07:00:34;96446.38;;;7.33;100.00
46724;BME280;32463;48.298;11.620;2022-09-19T07:03:05;96451.78;;;7.40;100.00
46724;BME280;32463;48.298;11.620;2022-09-19T07:05:34;96454.22;;;7.41;100.00
46724;BME280;32463;48.298;11.620;2022-09-19T07:08:01;96455.03;;;7.52;100.00
46724;BME280;32463;48.298;11.620;2022-09-19T07:10:28;96459.66;;;7.58;100.00
46724;BME280;32463;48.298;11.620;2022-09-19T07:12:56;96461.38;;;7.86;100.00
46724;BME280;32463;48.298;11.620;2022-09-19T07:15:24;96464.53;;;7.70;100.00
46724;BME280;32463;48.298;11.620;2022-09-19T07:17:55;96477.69;;;7.77;100.00
46724;BME280;32463;48.298;11.620;2022-09-19T07:20:23;96478.22;;;7.81;100.00
46724;BME280;32463;48.298;11.620;2022-09-19T07:23:04;96480.03;;;7.61;100.00
46724;BME280;32463;48.298;11.620;2022-09-19T07:25:31;96479.22;;;7.51;100.00
46724;BME280;32463;48.298;11.620;2022-09-19T07:28:03;96478.25;;;7.52;100.00
46724;BME280;32463;48.298;11.620;2022-09-19T07:30:30;96494.44;;;7.63;100.00
46724;BME280;32463;48.298;11.620;2022-09-19T07:32:58;96493.84;;;7.69;100.00
46724;BME280;32463;48.298;11.620;2022-09-19T07:35:26;96495.78;;;7.58;100.00
46724;BME280;32463;48.298;11.620;2022-09-19T07:37:55;96503.34;;;7.69;100.00
46724;BME280;32463;48.298;11.620;2022-09-19T07:40:22;96502.00;;;7.65;100.00
46724;BME280;32463;48.298;11.620;2022-09-19T07:42:49;96512.59;;;7.71;100.00
46724;BME280;32463;48.298;11.620;2022-09-19T07:45:17;96514.22;;;7.82;100.00
46724;BME280;32463;48.298;11.620;2022-09-19T07:47:45;96517.47;;;7.65;100.00
46724;BME280;32463;48.298;11.620;2022-09-19T07:50:13;96524.28;;;7.66;100.00
46724;BME280;32463;48.298;11.620;2022-09-19T07:52:45;96522.94;;;7.62;100.00
46724;BME280;32463;48.298;11.620;2022-09-19T07:55:15;96528.50;;;7.57;100.00
46724;BME280;32463;48.298;11.620;2022-09-19T07:57:49;96525.09;;;7.57;100.00
46724;BME280;32463;48.298;11.620;2022-09-19T08:00:17;96530.00;;;7.79;100.00
46724;BME280;32463;48.298;11.620;2022-09-19T08:02:44;96531.06;;;7.86;100.00
46724;BME280;32463;48.298;11.620;2022-09-19T08:05:18;96541.25;;;7.97;100.00
46724;BME280;32463;48.298;11.620;2022-09-19T08:07:45;96537.72;;;8.08;100.00
46724;BME280;32463;48.298;11.620;2022-09-19T08:10:11;96550.06;;;8.24;100.00
46724;BME280;32463;48.298;11.620;2022-09-19T08:12:40;96548.72;;;8.20;100.00
46724;BME280;32463;48.298;11.620;2022-09-19T08:15:08;96555.91;;;8.16;100.00
46724;BME280;32463;48.298;11.620;2022-09-19T08:17:35;96550.47;;;8.38;100.00
46724;BME280;32463;48.298;11.620;2022-09-19T08:20:02;96551.13;;;8.50;100.00
46724;BME280;32463;48.298;11.620;2022-09-19T08:22:29;96556.22;;;8.69;100.00
46724;BME280;32463;48.298;11.620;2022-09-19T08:24:56;96567.97;;;8.54;100.00
46724;BME280;32463;48.298;11.620;2022-09-19T08:27:23;96572.06;;;8.28;100.00
46724;BME280;32463;48.298;11.620;2022-09-19T08:29:49;96575.75;;;8.35;100.00
46724;BME280;32463;48.298;11.620;2022-09-19T08:32:17;96572.63;;;8.41;100.00
46724;BME280;32463;48.298;11.620;2022-09-19T08:34:44;96573.84;;;8.37;100.00
46724;BME280;32463;48.298;11.620;2022-09-19T08:37:10;96582.13;;;8.31;100.00
46724;BME280;32463;48.298;11.620;2022-09-19T08:39:36;96585.13;;;8.46;100.00
46724;BME280;32463;48.298;11.620;2022-09-19T08:42:36;96579.81;;;8.47;100.00
46724;BME280;32463;48.298;11.620;2022-09-19T08:45:27;96584.94;;;8.66;100.00
46724;BME280;32463;48.298;11.620;2022-09-19T08:48:02;96588.03;;;8.70;100.00
46724;BME280;32463;48.298;11.620;2022-09-19T08:50:32;96595.94;;;8.68;100.00
46724;BME280;32463;48.298;11.620;2022-09-19T08:53:02;96589.13;;;8.67;100.00
46724;BME280;32463;48.298;11.620;2022-09-19T08:55:34;96590.78;;;8.68;100.00
46724;BME280;32463;48.298;11.620;2022-09-19T08:58:06;96596.63;;;8.70;100.00
46724;BME280;32463;48.298;11.620;2022-09-19T09:00:39;96599.06;;;9.09;100.00
46724;BME280;32463;48.298;11.620;2022-09-19T09:03:11;96591.84;;;8.75;100.00
46724;BME280;32463;48.298;11.620;2022-09-19T09:06:04;96597.94;;;8.84;100.00
46724;BME280;32463;48.298;11.620;2022-09-19T09:09:27;96603.72;;;9.05;100.00
46724;BME280;32463;48.298;11.620;2022-09-19T09:12:07;96606.06;;;8.89;100.00
46724;BME280;32463;48.298;11.620;2022-09-19T09:17:19;96603.34;;;8.91;100.00
46724;BME280;32463;48.298;11.620;2022-09-19T09:25:21;96600.88;;;9.26;100.00
46724;BME280;32463;48.298;11.620;2022-09-19T09:28:08;96598.56;;;9.51;100.00
46724;BME280;32463;48.298;11.620;2022-09-19T09:30:44;96604.91;;;9.38;100.00
46724;BME280;32463;48.298;11.620;2022-09-19T09:33:29;96603.06;;;9.76;100.00
46724;BME280;32463;48.298;11.620;2022-09-19T09:36:12;96604.34;;;9.44;100.00
46724;BME280;32463;48.298;11.620;2022-09-19T09:38:49;96602.88;;;9.60;100.00
46724;BME280;32463;48.298;11.620;2022-09-19T09:41:33;96609.34;;;9.73;100.00
46724;BME280;32463;48.298;11.620;2022-09-19T09:44:27;96609.88;;;9.77;100.00
46724;BME280;32463;48.298;11.620;2022-09-19T09:49:39;96607.34;;;9.85;100.00
46724;BME280;32463;48.298;11.620;2022-09-19T09:52:27;96608.69;;;9.89;100.00
46724;BME280;32463;48.298;11.620;2022-09-19T09:55:20;96615.72;;;9.97;100.00
46724;BME280;32463;48.298;11.620;2022-09-19T09:58:24;96621.84;;;9.78;100.00
46724;BME280;32463;48.298;11.620;2022-09-19T10:01:18;96620.00;;;10.06;100.00
46724;BME280;32463;48.298;11.620;2022-09-19T10:04:17;96622.31;;;10.27;100.00
46724;BME280;32463;48.298;11.620;2022-09-19T10:06:52;96618.47;;;10.31;100.00
46724;BME280;32463;48.298;11.620;2022-09-19T10:09:29;96620.06;;;10.50;100.00
46724;BME280;32463;48.298;11.620;2022-09-19T10:14:51;96623.31;;;10.69;100.00
46724;BME280;32463;48.298;11.620;2022-09-19T10:17:21;96634.78;;;10.67;100.00
46724;BME280;32463;48.298;11.620;2022-09-19T10:19:56;96636.19;;;10.61;100.00
46724;BME280;32463;48.298;11.620;2022-09-19T10:22:25;96630.94;;;10.53;100.00
46724;BME280;32463;48.298;11.620;2022-09-19T10:24:53;96632.03;;;10.94;100.00
46724;BME280;32463;48.298;11.620;2022-09-19T10:32:29;96630.78;;;11.06;100.00
46724;BME280;32463;48.298;11.620;2022-09-19T10:35:00;96631.38;;;11.68;100.00
46724;BME280;32463;48.298;11.620;2022-09-19T10:37:26;96631.69;;;11.65;100.00
46724;BME280;32463;48.298;11.620;2022-09-19T10:40:03;96626.44;;;11.99;100.00
46724;BME280;32463;48.298;11.620;2022-09-19T10:42:38;96633.59;;;11.89;100.00
46724;BME280;32463;48.298;11.620;2022-09-19T10:45:20;96637.97;;;11.89;100.00
46724;BME280;32463;48.298;11.620;2022-09-19T10:47:53;96623.81;;;11.83;100.00
46724;BME280;32463;48.298;11.620;2022-09-19T10:50:22;96629.66;;;11.93;100.00
46724;BME280;32463;48.298;11.620;2022-09-19T10:52:50;96629.03;;;11.99;100.00
46724;BME280;32463;48.298;11.620;2022-09-19T10:55:20;96633.97;;;12.19;100.00
46724;BME280;32463;48.298;11.620;2022-09-19T10:58:14;96637.50;;;12.01;100.00
46724;BME280;32463;48.298;11.620;2022-09-19T11:00:58;96637.03;;;12.14;100.00
46724;BME280;32463;48.298;11.620;2022-09-19T11:03:34;96641.38;;;11.89;100.00
46724;BME280;32463;48.298;11.620;2022-09-19T11:08:44;96643.69;;;12.57;100.00
46724;BME280;32463;48.298;11.620;2022-09-19T11:14:15;96633.72;;;13.65;96.29
46724;BME280;32463;48.298;11.620;2022-09-19T11:20:41;96625.72;;;13.66;86.98
46724;BME280;32463;48.298;11.620;2022-09-19T11:29:04;96629.09;;;13.75;82.89
46724;BME280;32463;48.298;11.620;2022-09-19T11:34:30;96626.66;;;14.04;80.63
46724;BME280;32463;48.298;11.620;2022-09-19T11:37:27;96630.78;;;13.60;85.41
46724;BME280;32463;48.298;11.620;2022-09-19T11:40:54;96629.69;;;14.08;83.39
46724;BME280;32463;48.298;11.620;2022-09-19T11:45:31;96620.69;;;14.41;74.01
46724;BME280;32463;48.298;11.620;2022-09-19T11:59:17;96610.63;;;16.22;61.25
46724;BME280;32463;48.298;11.620;2022-09-19T12:04:42;96599.44;;;15.56;62.91
46724;BME280;32463;48.298;11.620;2022-09-19T12:10:19;96594.59;;;14.19;69.54
46724;BME280;32463;48.298;11.620;2022-09-19T12:12:57;96606.00;;;14.18;72.81
46724;BME280;32463;48.298;11.620;2022-09-19T12:15:30;96597.72;;;13.91;74.12
46724;BME280;32463;48.298;11.620;2022-09-19T12:18:11;96586.47;;;13.68;80.07
46724;BME280;32463;48.298;11.620;2022-09-19T12:20:44;96587.75;;;14.63;71.78
46724;BME280;32463;48.298;11.620;2022-09-19T12:23:23;96583.63;;;15.13;71.83
46724;BME280;32463;48.298;11.620;2022-09-19T12:26:10;96577.75;;;16.12;63.12
46724;BME280;32463;48.298;11.620;2022-09-19T12:28:42;96575.25;;;16.04;61.72
46724;BME280;32463;48.298;11.620;2022-09-19T12:31:11;96563.34;;;17.41;55.56
46724;BME280;32463;48.298;11.620;2022-09-19T12:33:47;96566.84;;;17.14;54.78
46724;BME280;32463;48.298;11.620;2022-09-19T12:36:31;96572.63;;;16.47;56.15
46724;BME280;32463;48.298;11.620;2022-09-19T12:39:05;96571.13;;;16.38;56.56
46724;BME280;32463;48.298;11.620;2022-09-19T12:41:50;96561.97;;;16.27;58.57
46724;BME280;32463;48.298;11.620;2022-09-19T12:47:12;96556.94;;;15.47;60.55
46724;BME280;32463;48.298;11.620;2022-09-19T12:49:57;96566.84;;;15.52;63.94
46724;BME280;32463;48.298;11.620;2022-09-19T12:52:39;96543.38;;;17.34;55.51
46724;BME280;32463;48.298;11.620;2022-09-19T12:58:09;96547.84;;;17.46;54.16
46724;BME280;32463;48.298;11.620;2022-09-19T13:00:42;96544.91;;;17.76;52.06
46724;BME280;32463;48.298;11.620;2022-09-19T13:03:34;96543.75;;;16.90;54.36
46724;BME280;32463;48.298;11.620;2022-09-19T13:06:19;96548.53;;;15.52;60.00
46724;BME280;32463;48.298;11.620;2022-09-19T13:08:58;96555.97;;;15.84;61.61
46724;BME280;32463;48.298;11.620;2022-09-19T13:11:44;96545.38;;;16.13;58.39
46724;BME280;32463;48.298;11.620;2022-09-19T13:14:15;96543.97;;;16.39;59.17
46724;BME280;32463;48.298;11.620;2022-09-19T13:16:44;96535.03;;;17.65;56.32
46724;BME280;32463;48.298;11.620;2022-09-19T13:19:37;96535.31;;;18.29;52.25
46724;BME280;32463;48.298;11.620;2022-09-19T13:22:22;96527.41;;;20.91;48.06
46724;BME280;32463;48.298;11.620;2022-09-19T13:25:27;96533.56;;;21.58;43.30
46724;BME280;32463;48.298;11.620;2022-09-19T13:30:50;96533.22;;;21.36;42.22
46724;BME280;32463;48.298;11.620;2022-09-19T13:33:52;96528.69;;;22.79;38.66
46724;BME280;32463;48.298;11.620;2022-09-19T13:38:50;96536.53;;;19.50;43.87
46724;BME280;32463;48.298;11.620;2022-09-19T13:41:24;96542.81;;;18.32;46.77
46724;BME280;32463;48.298;11.620;2022-09-19T13:49:14;96544.88;;;19.79;43.19
46724;BME280;32463;48.298;11.620;2022-09-19T13:51:52;96539.50;;;18.96;46.31
46724;BME280;32463;48.298;11.620;2022-09-19T13:59:31;96541.16;;;18.11;48.15
46724;BME280;32463;48.298;11.620;2022-09-19T14:02:17;96545.22;;;16.99;51.16
46724;BME280;32463;48.298;11.620;2022-09-19T14:04:58;96540.06;;;17.12;51.07
46724;BME280;32463;48.298;11.620;2022-09-19T14:20:47;96538.44;;;15.63;57.00
46724;BME280;32463;48.298;11.620;2022-09-19T14:23:14;96536.22;;;15.45;59.00
46724;BME280;32463;48.298;11.620;2022-09-19T14:39:48;96527.59;;;14.42;61.63
46724;BME280;32463;48.298;11.620;2022-09-19T14:47:53;96535.72;;;13.56;68.09
46724;BME280;32463;48.298;11.620;2022-09-19T14:53:11;96524.25;;;14.10;66.55
46724;BME280;32463;48.298;11.620;2022-09-19T14:55:46;96536.41;;;14.03;66.83
46724;BME280;32463;48.298;11.620;2022-09-19T14:58:24;96532.03;;;14.19;66.20
46724;BME280;32463;48.298;11.620;2022-09-19T15:00:55;96529.13;;;14.13;67.22
46724;BME280;32463;48.298;11.620;2022-09-19T15:03:24;96532.00;;;14.04;68.22
46724;BME280;32463;48.298;11.620;2022-09-19T15:05:50;96530.50;;;14.47;65.42
46724;BME280;32463;48.298;11.620;2022-09-19T15:08:29;96543.72;;;14.23;69.13
46724;BME280;32463;48.298;11.620;2022-09-19T15:10:57;96532.50;;;13.99;69.62
46724;BME280;32463;48.298;11.620;2022-09-19T15:13:26;96540.25;;;14.07;72.51
46724;BME280;32463;48.298;11.620;2022-09-19T15:15:59;96532.06;;;14.33;69.39
46724;BME280;32463;48.298;11.620;2022-09-19T15:18:35;96538.59;;;14.52;66.63
46724;BME280;32463;48.298;11.620;2022-09-19T15:21:04;96544.09;;;14.72;65.80
46724;BME280;32463;48.298;11.620;2022-09-19T15:23:35;96536.06;;;14.21;67.83
46724;BME280;32463;48.298;11.620;2022-09-19T15:26:04;96532.25;;;14.32;67.53
46724;BME280;32463;48.298;11.620;2022-09-19T15:28:34;96541.13;;;14.60;67.81
46724;BME280;32463;48.298;11.620;2022-09-19T15:31:16;96533.03;;;14.55;67.10
46724;BME280;32463;48.298;11.620;2022-09-19T15:33:44;96529.06;;;14.59;66.13
46724;BME280;32463;48.298;11.620;2022-09-19T15:36:14;96526.03;;;14.33;67.55
46724;BME280;32463;48.298;11.620;2022-09-19T15:38:43;96535.06;;;14.45;68.88
46724;BME280;32463;48.298;11.620;2022-09-19T15:41:12;96528.63;;;14.56;68.15
46724;BME280;32463;48.298;11.620;2022-09-19T15:43:45;96543.28;;;14.71;69.16
46724;BME280;32463;48.298;11.620;2022-09-19T15:49:05;96543.84;;;14.67;72.22
46724;BME280;32463;48.298;11.620;2022-09-19T15:51:34;96540.94;;;14.47;72.11